createdAt,value
2023-01-03T00:02:12.018Z,99075.94
2023-01-03T00:12:30.456Z,99064.52
2023-01-03T00:22:38.300Z,99068.80
2023-01-03T00:32:45.430Z,99073.39
2023-01-03T00:43:10.187Z,99075.73
2023-01-03T00:53:17.570Z,99091.56
2023-01-03T01:03:25.114Z,99102.50
2023-01-03T01:13:34.319Z,99118.79
2023-01-03T01:23:42.976Z,99130.91
2023-01-03T01:33:49.386Z,99133.23
2023-01-03T01:44:14.929Z,99131.77
2023-01-03T01:54:22.719Z,99136.43
2023-01-03T02:04:34.388Z,99168.55
2023-01-03T02:14:39.964Z,99185.82
2023-01-03T02:25:18.671Z,99192.27
2023-01-03T02:35:24.246Z,99192.25
2023-01-03T02:45:37.896Z,99200.69
2023-01-03T02:55:47.811Z,99210.35
2023-01-03T03:05:55.334Z,99212.44
2023-01-03T03:16:06.974Z,99240.65
2023-01-03T03:26:17.429Z,99259.92
2023-01-03T03:36:31.834Z,99288.27
2023-01-03T03:46:41.800Z,99306.10
2023-01-03T03:56:50.313Z,99297.55
2023-01-03T04:06:58.052Z,99309.16
2023-01-03T04:17:05.560Z,99329.55
2023-01-03T04:27:12.775Z,99337.34
2023-01-03T04:37:19.078Z,99346.91
2023-01-03T04:47:26.316Z,99350.88
2023-01-03T04:57:33.747Z,99360.07
2023-01-03T05:07:41.016Z,99376.48
2023-01-03T05:17:48.217Z,99379.48
2023-01-03T05:27:55.536Z,99390.90
2023-01-03T05:38:02.718Z,99401.52
2023-01-03T05:48:11.460Z,99408.95
2023-01-03T05:58:19.256Z,99417.88
2023-01-03T06:08:26.554Z,99423.91
2023-01-03T06:18:35.579Z,99433.48
2023-01-03T06:28:42.943Z,99445.74
2023-01-03T06:38:50.448Z,99464.27
2023-01-03T06:49:15.429Z,99478.61
2023-01-03T06:59:23.190Z,99498.00
2023-01-03T07:09:30.707Z,99520.23
2023-01-03T07:19:37.829Z,99528.42
2023-01-03T07:29:44.947Z,99533.64
2023-01-03T07:39:51.904Z,99552.04
2023-01-03T07:49:59.195Z,99564.48
2023-01-03T08:00:07.431Z,99575.42
2023-01-03T08:10:31.999Z,99577.16
2023-01-03T08:20:39.074Z,99582.37
2023-01-03T08:30:47.026Z,99590.35
2023-01-03T08:40:55.143Z,99589.39
2023-01-03T08:51:02.446Z,99594.71
2023-01-03T09:01:11.701Z,99617.04
2023-01-03T09:11:18.743Z,99637.90
2023-01-03T09:21:25.859Z,99642.55
2023-01-03T09:31:32.195Z,99643.79
2023-01-03T09:41:41.753Z,99642.02
2023-01-03T09:52:05.405Z,99644.41
2023-01-03T10:02:34.538Z,99644.90
2023-01-03T10:12:38.609Z,99647.72
2023-01-03T10:22:49.379Z,99653.68
2023-01-03T10:33:05.201Z,99654.54
2023-01-03T10:43:11.035Z,99649.41
2023-01-03T10:53:22.247Z,99650.15
2023-01-03T11:03:29.517Z,99644.54
2023-01-03T11:13:34.996Z,99635.55
2023-01-03T11:23:58.952Z,99636.85
2023-01-03T11:34:06.812Z,99633.70
2023-01-03T11:44:24.102Z,99635.90
2023-01-03T11:54:52.811Z,99637.07
2023-01-03T12:04:59.536Z,99638.15
2023-01-03T12:15:12.615Z,99639.17
2023-01-03T12:25:18.650Z,99642.66
2023-01-03T12:35:37.751Z,99637.66
2023-01-03T12:45:43.097Z,99647.05
2023-01-03T12:55:50.278Z,99642.45
2023-01-03T13:05:58.070Z,99642.42
2023-01-03T13:16:36.032Z,99639.66
2023-01-03T13:27:20.723Z,99645.20
2023-01-03T13:37:29.086Z,99649.36
2023-01-03T13:47:34.820Z,99649.40
2023-01-03T13:57:51.823Z,99652.13
2023-01-03T14:08:19.495Z,99655.84
2023-01-03T14:18:32.943Z,99664.36
2023-01-03T14:28:41.286Z,99667.48
2023-01-03T14:38:47.784Z,99675.00
2023-01-03T14:49:02.689Z,99679.30
2023-01-03T14:59:10.067Z,99686.86
2023-01-03T15:09:14.459Z,99692.90
2023-01-03T15:19:22.706Z,99705.73
2023-01-03T15:29:46.207Z,99717.10
2023-01-03T15:39:53.830Z,99720.14
2023-01-03T15:50:03.827Z,99716.32
2023-01-03T16:00:16.642Z,99728.61
2023-01-03T16:10:23.855Z,99744.64
2023-01-03T16:20:31.722Z,99751.52
2023-01-03T16:30:39.191Z,99754.29
2023-01-03T16:40:47.308Z,99758.09
2023-01-03T16:50:52.518Z,99761.32
2023-01-03T17:01:00.048Z,99766.00
2023-01-03T17:11:09.155Z,99782.70
2023-01-03T17:21:26.578Z,99776.30
2023-01-03T17:31:33.699Z,99777.55
2023-01-03T17:41:55.243Z,99783.42
2023-01-03T17:52:06.443Z,99793.86
2023-01-03T18:02:17.192Z,99792.40
2023-01-03T18:12:26.929Z,99802.45
2023-01-03T18:22:32.428Z,99810.45
2023-01-03T18:32:39.571Z,99816.84
2023-01-03T18:43:04.634Z,99824.46
2023-01-03T18:53:16.143Z,99838.08
2023-01-03T19:03:22.420Z,99838.86
2023-01-03T19:13:50.731Z,99841.10
2023-01-03T19:23:58.564Z,99835.77
2023-01-03T19:34:07.298Z,99832.33
2023-01-03T19:44:13.100Z,99842.92
2023-01-03T19:54:20.495Z,99835.11
2023-01-03T20:04:28.100Z,99846.41
2023-01-03T20:14:34.824Z,99857.16
2023-01-03T20:24:42.331Z,99860.48
2023-01-03T20:34:49.448Z,99859.52
2023-01-03T20:44:56.862Z,99860.14
2023-01-03T20:55:04.091Z,99858.02
2023-01-03T21:05:11.726Z,99847.13
2023-01-03T21:15:19.029Z,99850.16
2023-01-03T21:25:30.190Z,99849.52
2023-01-03T21:35:41.190Z,99852.70
2023-01-03T21:45:50.959Z,99867.71
2023-01-03T21:55:56.463Z,99856.90
2023-01-03T22:06:11.190Z,99862.72
2023-01-03T22:16:19.139Z,99871.16
2023-01-03T22:26:30.753Z,99876.70
2023-01-03T22:36:41.675Z,99873.55
2023-01-03T22:46:48.768Z,99876.17
2023-01-03T22:56:56.078Z,99880.17
2023-01-03T23:07:02.655Z,99875.55
2023-01-03T23:17:27.286Z,99875.31
2023-01-03T23:27:33.673Z,99866.37
2023-01-03T23:37:41.095Z,99856.39
2023-01-03T23:47:48.144Z,99855.66
2023-01-03T23:57:55.322Z,99849.08
